sensor_id;sensor_type;location;lat;lon;timestamp;pressure;altitude;pressure_sealevel;temperature;humidity
61506;BME280;47366;51.916;4.574;2023-02-16T00:01:23;102493.03;;;6.24;82.77
61506;BME280;47366;51.916;4.574;2023-02-16T00:03:50;102486.78;;;6.22;82.49
61506;BME280;47366;51.916;4.574;2023-02-16T00:06:16;102494.00;;;6.21;82.55
61506;BME280;47366;51.916;4.574;2023-02-16T00:08:44;102496.66;;;6.23;82.97
61506;BME280;47366;51.916;4.574;2023-02-16T00:11:22;102495.78;;;6.22;82.70
61506;BME280;47366;51.916;4.574;2023-02-16T00:14:09;102489.53;;;6.20;83.54
61506;BME280;47366;51.916;4.574;2023-02-16T00:16:35;102491.31;;;6.20;82.72
61506;BME280;47366;51.916;4.574;2023-02-16T00:19:01;102493.09;;;6.21;82.81
61506;BME280;47366;51.916;4.574;2023-02-16T00:21:26;102482.34;;;6.21;82.73
61506;BME280;47366;51.916;4.574;2023-02-16T00:23:52;102486.78;;;6.23;82.86
61506;BME280;47366;51.916;4.574;2023-02-16T00:26:20;102480.53;;;6.21;82.44
61506;BME280;47366;51.916;4.574;2023-02-16T00:28:49;102476.09;;;6.19;82.46
61506;BME280;47366;51.916;4.574;2023-02-16T00:31:17;102481.47;;;6.20;82.45
61506;BME280;47366;51.916;4.574;2023-02-16T00:33:43;102484.19;;;6.17;82.29
61506;BME280;47366;51.916;4.574;2023-02-16T00:36:08;102490.50;;;6.16;82.70
61506;BME280;47366;51.916;4.574;2023-02-16T00:38:34;102486.88;;;6.17;82.55
61506;BME280;47366;51.916;4.574;2023-02-16T00:41:00;102473.47;;;6.14;82.01
61506;BME280;47366;51.916;4.574;2023-02-16T00:43:27;102479.78;;;6.13;82.46
61506;BME280;47366;51.916;4.574;2023-02-16T00:45:53;102477.13;;;6.10;82.52
61506;BME280;47366;51.916;4.574;2023-02-16T00:48:19;102468.16;;;6.11;82.56
61506;BME280;47366;51.916;4.574;2023-02-16T00:50:44;102455.66;;;6.07;82.80
61506;BME280;47366;51.916;4.574;2023-02-16T00:53:10;102465.47;;;6.11;82.24
61506;BME280;47366;51.916;4.574;2023-02-16T00:55:37;102462.78;;;6.09;82.72
61506;BME280;47366;51.916;4.574;2023-02-16T01:01:07;102457.41;;;6.11;82.31
61506;BME280;47366;51.916;4.574;2023-02-16T01:03:33;102452.88;;;6.13;82.38
61506;BME280;47366;51.916;4.574;2023-02-16T01:05:59;102458.31;;;6.10;82.65
61506;BME280;47366;51.916;4.574;2023-02-16T01:08:44;102459.22;;;6.09;82.61
61506;BME280;47366;51.916;4.574;2023-02-16T01:11:28;102460.97;;;6.13;82.12
61506;BME280;47366;51.916;4.574;2023-02-16T01:13:55;102450.22;;;6.10;82.44
61506;BME280;47366;51.916;4.574;2023-02-16T01:16:23;102454.66;;;6.12;82.18
61506;BME280;47366;51.916;4.574;2023-02-16T01:18:49;102452.88;;;6.13;82.53
61506;BME280;47366;51.916;4.574;2023-02-16T01:21:15;102447.50;;;6.13;82.21
61506;BME280;47366;51.916;4.574;2023-02-16T01:23:41;102449.22;;;6.17;82.23
61506;BME280;47366;51.916;4.574;2023-02-16T01:26:15;102456.41;;;6.16;82.17
61506;BME280;47366;51.916;4.574;2023-02-16T01:28:41;102459.94;;;6.20;81.87
61506;BME280;47366;51.916;4.574;2023-02-16T01:31:09;102447.44;;;6.18;81.91
61506;BME280;47366;51.916;4.574;2023-02-16T01:33:34;102448.25;;;6.20;82.05
61506;BME280;47366;51.916;4.574;2023-02-16T01:35:59;102446.50;;;6.19;81.66
61506;BME280;47366;51.916;4.574;2023-02-16T01:38:26;102439.31;;;6.19;81.80
61506;BME280;47366;51.916;4.574;2023-02-16T01:43:47;102440.25;;;6.18;81.56
61506;BME280;47366;51.916;4.574;2023-02-16T01:46:19;102441.09;;;6.20;81.54
61506;BME280;47366;51.916;4.574;2023-02-16T01:48:47;102438.41;;;6.20;81.87
61506;BME280;47366;51.916;4.574;2023-02-16T01:53:49;102440.19;;;6.20;81.74
61506;BME280;47366;51.916;4.574;2023-02-16T02:01:59;102448.25;;;6.21;81.71
61506;BME280;47366;51.916;4.574;2023-02-16T02:07:40;102434.78;;;6.21;81.30
61506;BME280;47366;51.916;4.574;2023-02-16T02:10:27;102435.66;;;6.23;81.45
61506;BME280;47366;51.916;4.574;2023-02-16T02:16:23;102420.41;;;6.24;81.06
61506;BME280;47366;51.916;4.574;2023-02-16T02:18:49;102425.75;;;6.25;81.19
61506;BME280;47366;51.916;4.574;2023-02-16T02:21:37;102420.41;;;6.24;81.07
61506;BME280;47366;51.916;4.574;2023-02-16T02:35:08;102406.84;;;6.30;80.36
61506;BME280;47366;51.916;4.574;2023-02-16T02:43:32;102393.25;;;6.36;80.12
61506;BME280;47366;51.916;4.574;2023-02-16T02:46:06;102388.78;;;6.36;80.12
61506;BME280;47366;51.916;4.574;2023-02-16T02:48:33;102386.13;;;6.33;79.98
61506;BME280;47366;51.916;4.574;2023-02-16T02:56:40;102370.84;;;6.35;80.36
61506;BME280;47366;51.916;4.574;2023-02-16T02:59:28;102375.38;;;6.33;80.59
61506;BME280;47366;51.916;4.574;2023-02-16T03:02:14;102377.16;;;6.34;80.32
61506;BME280;47366;51.916;4.574;2023-02-16T03:04:41;102380.72;;;6.36;80.42
61506;BME280;47366;51.916;4.574;2023-02-16T03:07:08;102374.41;;;6.36;80.54
61506;BME280;47366;51.916;4.574;2023-02-16T03:09:35;102353.81;;;6.35;80.61
61506;BME280;47366;51.916;4.574;2023-02-16T03:12:01;102356.50;;;6.35;80.33
61506;BME280;47366;51.916;4.574;2023-02-16T03:14:57;102353.81;;;6.36;80.40
61506;BME280;47366;51.916;4.574;2023-02-16T03:17:36;102371.72;;;6.37;80.39
61506;BME280;47366;51.916;4.574;2023-02-16T03:20:20;102372.63;;;6.36;80.41
61506;BME280;47366;51.916;4.574;2023-02-16T03:23:05;102377.09;;;6.37;80.40
61506;BME280;47366;51.916;4.574;2023-02-16T03:25:51;102380.66;;;6.38;80.51
61506;BME280;47366;51.916;4.574;2023-02-16T03:28:37;102374.41;;;6.37;80.53
61506;BME280;47366;51.916;4.574;2023-02-16T03:31:28;102377.09;;;6.37;80.78
61506;BME280;47366;51.916;4.574;2023-02-16T03:33:54;102370.75;;;6.40;80.61
61506;BME280;47366;51.916;4.574;2023-02-16T03:36:21;102365.38;;;6.40;80.77
61506;BME280;47366;51.916;4.574;2023-02-16T03:38:47;102363.56;;;6.41;80.54
61506;BME280;47366;51.916;4.574;2023-02-16T03:41:13;102369.00;;;6.39;80.97
61506;BME280;47366;51.916;4.574;2023-02-16T03:43:39;102359.13;;;6.40;80.88
61506;BME280;47366;51.916;4.574;2023-02-16T03:46:04;102369.88;;;6.40;80.87
61506;BME280;47366;51.916;4.574;2023-02-16T03:48:29;102363.63;;;6.39;80.72
61506;BME280;47366;51.916;4.574;2023-02-16T03:50:55;102367.13;;;6.41;80.93
61506;BME280;47366;51.916;4.574;2023-02-16T03:53:20;102363.63;;;6.39;81.02
61506;BME280;47366;51.916;4.574;2023-02-16T03:55:46;102364.50;;;6.40;80.98
61506;BME280;47366;51.916;4.574;2023-02-16T03:58:18;102362.69;;;6.40;81.12
61506;BME280;47366;51.916;4.574;2023-02-16T04:00:44;102363.63;;;6.39;81.14
61506;BME280;47366;51.916;4.574;2023-02-16T04:03:10;102353.81;;;6.36;80.93
61506;BME280;47366;51.916;4.574;2023-02-16T04:05:36;102356.41;;;6.40;81.29
61506;BME280;47366;51.916;4.574;2023-02-16T04:08:01;102354.63;;;6.38;81.59
61506;BME280;47366;51.916;4.574;2023-02-16T04:10:27;102344.81;;;6.36;81.52
61506;BME280;47366;51.916;4.574;2023-02-16T04:12:53;102371.63;;;6.41;81.35
61506;BME280;47366;51.916;4.574;2023-02-16T04:15:21;102357.31;;;6.38;81.36
61506;BME280;47366;51.916;4.574;2023-02-16T04:17:47;102368.09;;;6.38;81.39
61506;BME280;47366;51.916;4.574;2023-02-16T04:20:15;102363.66;;;6.36;81.46
61506;BME280;47366;51.916;4.574;2023-02-16T04:22:42;102376.16;;;6.38;81.68
61506;BME280;47366;51.916;4.574;2023-02-16T04:25:07;102380.63;;;6.40;81.49
61506;BME280;47366;51.916;4.574;2023-02-16T04:27:34;102386.03;;;6.40;82.07
61506;BME280;47366;51.916;4.574;2023-02-16T04:29:59;102378.84;;;6.38;81.83
61506;BME280;47366;51.916;4.574;2023-02-16T04:32:25;102376.22;;;6.35;81.73
61506;BME280;47366;51.916;4.574;2023-02-16T04:34:50;102369.09;;;6.34;81.87
61506;BME280;47366;51.916;4.574;2023-02-16T04:37:16;102371.72;;;6.36;81.94
61506;BME280;47366;51.916;4.574;2023-02-16T04:39:41;102379.84;;;6.34;81.84
61506;BME280;47366;51.916;4.574;2023-02-16T04:42:06;102376.25;;;6.34;82.27
61506;BME280;47366;51.916;4.574;2023-02-16T04:44:32;102364.66;;;6.30;82.23
61506;BME280;47366;51.916;4.574;2023-02-16T04:46:57;102361.97;;;6.30;81.97
61506;BME280;47366;51.916;4.574;2023-02-16T04:49:22;102352.16;;;6.29;82.12
61506;BME280;47366;51.916;4.574;2023-02-16T04:51:47;102355.72;;;6.28;82.03
61506;BME280;47366;51.916;4.574;2023-02-16T04:54:13;102367.34;;;6.32;82.37
61506;BME280;47366;51.916;4.574;2023-02-16T04:56:38;102357.53;;;6.29;82.45
61506;BME280;47366;51.916;4.574;2023-02-16T04:59:04;102362.91;;;6.29;82.60
61506;BME280;47366;51.916;4.574;2023-02-16T05:01:29;102368.28;;;6.29;82.55
61506;BME280;47366;51.916;4.574;2023-02-16T05:03:55;102356.63;;;6.29;82.30
61506;BME280;47366;51.916;4.574;2023-02-16T05:06:20;102344.09;;;6.28;82.91
61506;BME280;47366;51.916;4.574;2023-02-16T05:08:46;102351.28;;;6.27;83.00
61506;BME280;47366;51.916;4.574;2023-02-16T05:11:12;102358.44;;;6.28;82.76
61506;BME280;47366;51.916;4.574;2023-02-16T05:13:57;102360.25;;;6.28;82.79
61506;BME280;47366;51.916;4.574;2023-02-16T05:16:41;102351.22;;;6.29;82.48
61506;BME280;47366;51.916;4.574;2023-02-16T05:19:06;102334.22;;;6.28;82.98
61506;BME280;47366;51.916;4.574;2023-02-16T05:21:32;102331.53;;;6.28;82.64
61506;BME280;47366;51.916;4.574;2023-02-16T05:23:59;102331.44;;;6.31;82.55
61506;BME280;47366;51.916;4.574;2023-02-16T05:26:25;102331.44;;;6.33;82.70
61506;BME280;47366;51.916;4.574;2023-02-16T05:28:51;102329.66;;;6.32;82.23
61506;BME280;47366;51.916;4.574;2023-02-16T05:31:16;102329.56;;;6.36;82.52
61506;BME280;47366;51.916;4.574;2023-02-16T05:33:41;102333.16;;;6.35;82.37
61506;BME280;47366;51.916;4.574;2023-02-16T05:36:07;102334.97;;;6.36;82.55
61506;BME280;47366;51.916;4.574;2023-02-16T05:38:32;102334.06;;;6.36;82.37
61506;BME280;47366;51.916;4.574;2023-02-16T05:40:58;102334.97;;;6.35;82.16
61506;BME280;47366;51.916;4.574;2023-02-16T05:43:24;102345.66;;;6.38;82.71
61506;BME280;47366;51.916;4.574;2023-02-16T05:45:49;102343.84;;;6.40;82.79
61506;BME280;47366;51.916;4.574;2023-02-16T05:48:15;102344.72;;;6.41;82.49
61506;BME280;47366;51.916;4.574;2023-02-16T05:50:40;102339.34;;;6.41;82.78
61506;BME280;47366;51.916;4.574;2023-02-16T05:53:06;102355.41;;;6.45;82.50
61506;BME280;47366;51.916;4.574;2023-02-16T05:55:31;102345.56;;;6.44;82.75
61506;BME280;47366;51.916;4.574;2023-02-16T05:57:56;102339.31;;;6.42;83.01
61506;BME280;47366;51.916;4.574;2023-02-16T06:00:22;102348.19;;;6.46;83.04
61506;BME280;47366;51.916;4.574;2023-02-16T06:02:47;102342.88;;;6.44;82.96
61506;BME280;47366;51.916;4.574;2023-02-16T06:05:12;102341.88;;;6.48;83.21
61506;BME280;47366;51.916;4.574;2023-02-16T06:07:37;102355.31;;;6.50;82.72
61506;BME280;47366;51.916;4.574;2023-02-16T06:10:03;102340.09;;;6.49;82.67
61506;BME280;47366;51.916;4.574;2023-02-16T06:12:29;102329.25;;;6.52;82.72
61506;BME280;47366;51.916;4.574;2023-02-16T06:14:56;102338.16;;;6.55;83.10
61506;BME280;47366;51.916;4.574;2023-02-16T06:17:22;102325.63;;;6.53;82.69
61506;BME280;47366;51.916;4.574;2023-02-16T06:19:47;102339.91;;;6.58;82.72
61506;BME280;47366;51.916;4.574;2023-02-16T06:22:12;102339.91;;;6.56;82.44
61506;BME280;47366;51.916;4.574;2023-02-16T06:24:38;102334.63;;;6.53;83.15
61506;BME280;47366;51.916;4.574;2023-02-16T06:27:03;102345.38;;;6.53;82.85
61506;BME280;47366;51.916;4.574;2023-02-16T06:29:29;102334.63;;;6.53;83.06
61506;BME280;47366;51.916;4.574;2023-02-16T06:31:54;102346.25;;;6.54;83.45
61506;BME280;47366;51.916;4.574;2023-02-16T06:34:20;102353.38;;;6.56;83.18
61506;BME280;47366;51.916;4.574;2023-02-16T06:36:45;102343.56;;;6.55;83.48
61506;BME280;47366;51.916;4.574;2023-02-16T06:39:11;102350.63;;;6.59;82.79
61506;BME280;47366;51.916;4.574;2023-02-16T06:41:36;102344.34;;;6.61;83.53
61506;BME280;47366;51.916;4.574;2023-02-16T06:44:14;102346.13;;;6.60;83.35
61506;BME280;47366;51.916;4.574;2023-02-16T06:46:44;102352.44;;;6.59;83.12
61506;BME280;47366;51.916;4.574;2023-02-16T06:49:15;102361.38;;;6.59;83.57
61506;BME280;47366;51.916;4.574;2023-02-16T06:51:44;102358.69;;;6.59;83.14
61506;BME280;47366;51.916;4.574;2023-02-16T06:54:10;102364.03;;;6.63;83.13
61506;BME280;47366;51.916;4.574;2023-02-16T06:56:35;102370.31;;;6.63;83.30
61506;BME280;47366;51.916;4.574;2023-02-16T06:59:01;102364.91;;;6.63;83.55
61506;BME280;47366;51.916;4.574;2023-02-16T07:01:28;102359.47;;;6.65;83.13
61506;BME280;47366;51.916;4.574;2023-02-16T07:03:54;102371.16;;;6.65;83.28
61506;BME280;47366;51.916;4.574;2023-02-16T07:06:21;102376.47;;;6.68;83.27
61506;BME280;47366;51.916;4.574;2023-02-16T07:08:47;102367.53;;;6.66;83.33
61506;BME280;47366;51.916;4.574;2023-02-16T07:11:13;102373.81;;;6.67;83.36
61506;BME280;47366;51.916;4.574;2023-02-16T07:13:38;102371.09;;;6.68;83.37
61506;BME280;47366;51.916;4.574;2023-02-16T07:16:05;102374.75;;;6.64;84.00
61506;BME280;47366;51.916;4.574;2023-02-16T07:18:31;102383.69;;;6.66;83.23
61506;BME280;47366;51.916;4.574;2023-02-16T07:20:57;102381.94;;;6.65;83.09
61506;BME280;47366;51.916;4.574;2023-02-16T07:23:22;102378.34;;;6.65;83.63
61506;BME280;47366;51.916;4.574;2023-02-16T07:25:48;102377.50;;;6.63;83.61
61506;BME280;47366;51.916;4.574;2023-02-16T07:28:13;102380.06;;;6.67;83.51
61506;BME280;47366;51.916;4.574;2023-02-16T07:30:39;102381.00;;;6.66;83.43
61506;BME280;47366;51.916;4.574;2023-02-16T07:33:04;102387.31;;;6.65;83.58
61506;BME280;47366;51.916;4.574;2023-02-16T07:35:31;102382.84;;;6.64;84.39
61506;BME280;47366;51.916;4.574;2023-02-16T07:37:57;102387.28;;;6.67;83.66
61506;BME280;47366;51.916;4.574;2023-02-16T07:40:22;102382.84;;;6.64;83.85
61506;BME280;47366;51.916;4.574;2023-02-16T07:42:47;102390.00;;;6.65;83.65
61506;BME280;47366;51.916;4.574;2023-02-16T07:45:13;102390.91;;;6.66;83.82
61506;BME280;47366;51.916;4.574;2023-02-16T07:47:38;102410.59;;;6.68;83.67
61506;BME280;47366;51.916;4.574;2023-02-16T07:50:04;102404.25;;;6.70;83.96
61506;BME280;47366;51.916;4.574;2023-02-16T07:52:29;102410.59;;;6.68;84.36
61506;BME280;47366;51.916;4.574;2023-02-16T07:54:58;102400.69;;;6.70;83.97
61506;BME280;47366;51.916;4.574;2023-02-16T07:57:24;102413.25;;;6.69;84.26
61506;BME280;47366;51.916;4.574;2023-02-16T07:59:51;102415.06;;;6.67;84.40
61506;BME280;47366;51.916;4.574;2023-02-16T08:02:17;102417.75;;;6.69;83.99
61506;BME280;47366;51.916;4.574;2023-02-16T08:04:44;102417.75;;;6.69;84.19
61506;BME280;47366;51.916;4.574;2023-02-16T08:07:14;102415.06;;;6.69;84.04
61506;BME280;47366;51.916;4.574;2023-02-16T08:09:40;102404.31;;;6.67;84.55
61506;BME280;47366;51.916;4.574;2023-02-16T08:12:09;102418.59;;;6.72;84.54
61506;BME280;47366;51.916;4.574;2023-02-16T08:14:35;102425.72;;;6.73;84.50
61506;BME280;47366;51.916;4.574;2023-02-16T08:17:02;102427.56;;;6.71;84.95
61506;BME280;47366;51.916;4.574;2023-02-16T08:19:27;102423.97;;;6.72;84.77
61506;BME280;47366;51.916;4.574;2023-02-16T08:21:56;102426.66;;;6.72;85.18
61506;BME280;47366;51.916;4.574;2023-02-16T08:24:22;102422.25;;;6.68;85.44
61506;BME280;47366;51.916;4.574;2023-02-16T08:26:49;102424.97;;;6.67;85.74
61506;BME280;47366;51.916;4.574;2023-02-16T08:29:18;102425.91;;;6.64;86.14
61506;BME280;47366;51.916;4.574;2023-02-16T08:31:44;102422.31;;;6.65;86.47
61506;BME280;47366;51.916;4.574;2023-02-16T08:34:12;102433.91;;;6.67;86.12
61506;BME280;47366;51.916;4.574;2023-02-16T08:36:39;102431.38;;;6.61;85.77
61506;BME280;47366;51.916;4.574;2023-02-16T08:39:07;102440.25;;;6.65;86.20
61506;BME280;47366;51.916;4.574;2023-02-16T08:41:35;102437.63;;;6.63;87.37
61506;BME280;47366;51.916;4.574;2023-02-16T08:44:02;102436.72;;;6.63;86.61
61506;BME280;47366;51.916;4.574;2023-02-16T08:46:29;102434.03;;;6.63;86.99
61506;BME280;47366;51.916;4.574;2023-02-16T08:48:56;102440.25;;;6.65;87.77
61506;BME280;47366;51.916;4.574;2023-02-16T08:51:24;102438.56;;;6.61;87.37
61506;BME280;47366;51.916;4.574;2023-02-16T08:53:50;102436.75;;;6.61;88.19
61506;BME280;47366;51.916;4.574;2023-02-16T08:56:17;102425.09;;;6.61;88.63
61506;BME280;47366;51.916;4.574;2023-02-16T08:58:44;102433.19;;;6.59;87.44
61506;BME280;47366;51.916;4.574;2023-02-16T09:01:10;102437.66;;;6.60;87.58
61506;BME280;47366;51.916;4.574;2023-02-16T09:03:37;102426.84;;;6.63;88.46
61506;BME280;47366;51.916;4.574;2023-02-16T09:06:07;102433.97;;;6.66;88.88
61506;BME280;47366;51.916;4.574;2023-02-16T09:08:33;102431.22;;;6.67;88.49
61506;BME280;47366;51.916;4.574;2023-02-16T09:11:02;102441.09;;;6.68;88.96
61506;BME280;47366;51.916;4.574;2023-02-16T09:13:27;102436.53;;;6.72;89.35
61506;BME280;47366;51.916;4.574;2023-02-16T09:15:53;102441.81;;;6.78;89.77
61506;BME280;47366;51.916;4.574;2023-02-16T09:18:18;102434.59;;;6.78;89.42
61506;BME280;47366;51.916;4.574;2023-02-16T09:20:44;102435.53;;;6.77;89.40
61506;BME280;47366;51.916;4.574;2023-02-16T09:23:10;102440.00;;;6.78;91.04
61506;BME280;47366;51.916;4.574;2023-02-16T09:25:38;102429.28;;;6.77;90.96
61506;BME280;47366;51.916;4.574;2023-02-16T09:28:05;102435.41;;;6.84;90.09
61506;BME280;47366;51.916;4.574;2023-02-16T09:30:31;102440.75;;;6.87;90.58
61506;BME280;47366;51.916;4.574;2023-02-16T09:32:59;102433.47;;;6.89;91.28
61506;BME280;47366;51.916;4.574;2023-02-16T09:35:25;102428.00;;;6.95;89.92
61506;BME280;47366;51.916;4.574;2023-02-16T09:37:50;102421.72;;;6.94;90.63
61506;BME280;47366;51.916;4.574;2023-02-16T09:40:16;102428.75;;;7.01;91.15
61506;BME280;47366;51.916;4.574;2023-02-16T09:43:02;102433.03;;;7.10;91.04
61506;BME280;47366;51.916;4.574;2023-02-16T09:45:30;102421.34;;;7.13;90.27
61506;BME280;47366;51.916;4.574;2023-02-16T09:47:59;102420.31;;;7.17;90.33
61506;BME280;47366;51.916;4.574;2023-02-16T09:50:27;102416.72;;;7.18;90.00
61506;BME280;47366;51.916;4.574;2023-02-16T09:53:06;102416.53;;;7.26;89.59
61506;BME280;47366;51.916;4.574;2023-02-16T09:55:51;102408.34;;;7.32;90.05
61506;BME280;47366;51.916;4.574;2023-02-16T09:58:26;102410.78;;;7.42;90.02
61506;BME280;47366;51.916;4.574;2023-02-16T10:00:58;102405.16;;;7.52;89.68
61506;BME280;47366;51.916;4.574;2023-02-16T10:06:29;102416.41;;;7.71;90.44
61506;BME280;47366;51.916;4.574;2023-02-16T10:09:17;102421.56;;;7.80;89.31
61506;BME280;47366;51.916;4.574;2023-02-16T10:12:31;102415.22;;;7.81;90.24
61506;BME280;47366;51.916;4.574;2023-02-16T10:15:27;102409.81;;;7.82;89.77
61506;BME280;47366;51.916;4.574;2023-02-16T10:17:55;102399.03;;;7.82;91.26
61506;BME280;47366;51.916;4.574;2023-02-16T10:20:37;102400.91;;;7.79;92.29
61506;BME280;47366;51.916;4.574;2023-02-16T10:23:33;102406.28;;;7.79;91.03
61506;BME280;47366;51.916;4.574;2023-02-16T10:28:54;102398.97;;;7.84;90.87
61506;BME280;47366;51.916;4.574;2023-02-16T10:31:39;102400.66;;;7.88;91.50
61506;BME280;47366;51.916;4.574;2023-02-16T10:45:06;102405.75;;;8.00;91.48
61506;BME280;47366;51.916;4.574;2023-02-16T10:47:43;102411.97;;;8.04;92.14
61506;BME280;47366;51.916;4.574;2023-02-16T10:50:31;102395.72;;;8.05;91.94
61506;BME280;47366;51.916;4.574;2023-02-16T10:53:00;102401.09;;;8.07;92.46
61506;BME280;47366;51.916;4.574;2023-02-16T10:55:28;102398.34;;;8.08;92.03
61506;BME280;47366;51.916;4.574;2023-02-16T10:58:00;102400.03;;;8.13;91.88
61506;BME280;47366;51.916;4.574;2023-02-16T11:00:44;102394.47;;;8.19;92.18
61506;BME280;47366;51.916;4.574;2023-02-16T11:03:13;102394.13;;;8.33;91.56
61506;BME280;47366;51.916;4.574;2023-02-16T11:05:40;102387.72;;;8.37;91.55
61506;BME280;47366;51.916;4.574;2023-02-16T11:08:07;102392.97;;;8.43;91.35
61506;BME280;47366;51.916;4.574;2023-02-16T11:13:04;102382.78;;;8.53;91.12
61506;BME280;47366;51.916;4.574;2023-02-16T11:15:30;102381.69;;;8.60;91.29
61506;BME280;47366;51.916;4.574;2023-02-16T11:18:00;102383.28;;;8.67;91.89
61506;BME280;47366;51.916;4.574;2023-02-16T11:21:01;102390.19;;;8.77;91.58
61506;BME280;47366;51.916;4.574;2023-02-16T11:28:31;102382.41;;;8.96;90.93
61506;BME280;47366;51.916;4.574;2023-02-16T11:31:03;102385.75;;;9.06;91.06
61506;BME280;47366;51.916;4.574;2023-02-16T11:33:35;102381.97;;;9.11;90.78
61506;BME280;47366;51.916;4.574;2023-02-16T11:36:03;102387.19;;;9.18;90.69
61506;BME280;47366;51.916;4.574;2023-02-16T11:38:41;102381.06;;;9.11;91.18
61506;BME280;47366;51.916;4.574;2023-02-16T11:41:22;102379.22;;;9.13;91.56
61506;BME280;47366;51.916;4.574;2023-02-16T11:43:48;102370.84;;;9.21;91.29
61506;BME280;47366;51.916;4.574;2023-02-16T11:46:17;102366.19;;;9.26;90.80
61506;BME280;47366;51.916;4.574;2023-02-16T11:48:44;102360.34;;;9.40;90.67
61506;BME280;47366;51.916;4.574;2023-02-16T11:51:11;102349.81;;;9.59;89.61
61506;BME280;47366;51.916;4.574;2023-02-16T11:53:41;102348.63;;;9.94;89.17
61506;BME280;47366;51.916;4.574;2023-02-16T11:56:28;102341.50;;;10.16;87.50
61506;BME280;47366;51.916;4.574;2023-02-16T11:59:18;102344.03;;;10.21;87.13
61506;BME280;47366;51.916;4.574;2023-02-16T12:02:06;102332.78;;;10.33;86.82
61506;BME280;47366;51.916;4.574;2023-02-16T12:18:45;102304.06;;;11.22;83.23
61506;BME280;47366;51.916;4.574;2023-02-16T12:27:11;102286.66;;;11.50;82.07
61506;BME280;47366;51.916;4.574;2023-02-16T12:43:48;102288.47;;;11.27;81.91
61506;BME280;47366;51.916;4.574;2023-02-16T12:46:27;102283.03;;;11.27;81.58
61506;BME280;47366;51.916;4.574;2023-02-16T12:48:59;102270.50;;;11.24;80.56
61506;BME280;47366;51.916;4.574;2023-02-16T12:51:33;102280.47;;;11.24;80.13
61506;BME280;47366;51.916;4.574;2023-02-16T12:57:28;102276.56;;;11.09;80.83
61506;BME280;47366;51.916;4.574;2023-02-16T13:02:08;102252.06;;;11.11;80.11
61506;BME280;47366;51.916;4.574;2023-02-16T13:04:40;102259.84;;;11.20;80.77
61506;BME280;47366;51.916;4.574;2023-02-16T13:07:25;102250.78;;;11.21;80.74
61506;BME280;47366;51.916;4.574;2023-02-16T13:10:01;102257.25;;;11.17;80.38
61506;BME280;47366;51.916;4.574;2023-02-16T13:12:48;102236.63;;;11.13;80.72
61506;BME280;47366;51.916;4.574;2023-02-16T13:17:56;102223.19;;;11.10;79.34
61506;BME280;47366;51.916;4.574;2023-02-16T13:20:23;102216.13;;;11.05;79.85
61506;BME280;47366;51.916;4.574;2023-02-16T13:31:01;102230.06;;;10.96;80.05
61506;BME280;47366;51.916;4.574;2023-02-16T13:33:48;102233.59;;;10.98;80.34
61506;BME280;47366;51.916;4.574;2023-02-16T13:36:43;102219.31;;;10.95;80.36
61506;BME280;47366;51.916;4.574;2023-02-16T13:42:44;102204.16;;;10.89;80.58
61506;BME280;47366;51.916;4.574;2023-02-16T13:45:19;102201.56;;;10.86;80.88
61506;BME280;47366;51.916;4.574;2023-02-16T13:47:47;102202.53;;;10.85;80.66
61506;BME280;47366;51.916;4.574;2023-02-16T13:52:49;102187.47;;;10.78;81.26
61506;BME280;47366;51.916;4.574;2023-02-16T13:55:37;102192.94;;;10.76;81.26
61506;BME280;47366;51.916;4.574;2023-02-16T13:58:10;102184.13;;;10.71;81.07
61506;BME280;47366;51.916;4.574;2023-02-16T14:00:48;102182.28;;;10.72;81.49
61506;BME280;47366;51.916;4.574;2023-02-16T14:05:47;102170.00;;;10.63;81.82
61506;BME280;47366;51.916;4.574;2023-02-16T14:08:15;102181.03;;;10.58;82.18
61506;BME280;47366;51.916;4.574;2023-02-16T14:15:52;102178.50;;;10.54;82.70
61506;BME280;47366;51.916;4.574;2023-02-16T14:18:46;102174.09;;;10.51;82.97
61506;BME280;47366;51.916;4.574;2023-02-16T14:23:57;102168.69;;;10.51;83.03
61506;BME280;47366;51.916;4.574;2023-02-16T14:26:23;102163.31;;;10.50;83.27
61506;BME280;47366;51.916;4.574;2023-02-16T14:34:53;102165.38;;;10.43;83.83
61506;BME280;47366;51.916;4.574;2023-02-16T14:37:27;102165.69;;;10.35;84.84
61506;BME280;47366;51.916;4.574;2023-02-16T14:40:20;102175.66;;;10.35;85.46
61506;BME280;47366;51.916;4.574;2023-02-16T14:42:55;102182.16;;;10.29;86.32
61506;BME280;47366;51.916;4.574;2023-02-16T14:49:05;102172.91;;;10.11;87.66
61506;BME280;47366;51.916;4.574;2023-02-16T14:59:55;102173.59;;;9.93;90.04
61506;BME280;47366;51.916;4.574;2023-02-16T15:02:33;102168.06;;;9.96;89.33
61506;BME280;47366;51.916;4.574;2023-02-16T15:05:16;102165.34;;;9.96;89.48
61506;BME280;47366;51.916;4.574;2023-02-16T15:07:44;102162.72;;;9.94;89.80
61506;BME280;47366;51.916;4.574;2023-02-16T15:10:13;102159.25;;;9.91;90.54
61506;BME280;47366;51.916;4.574;2023-02-16T15:12:39;102163.81;;;9.89;89.85
61506;BME280;47366;51.916;4.574;2023-02-16T15:15:06;102161.25;;;9.86;90.29
61506;BME280;47366;51.916;4.574;2023-02-16T15:17:47;102163.81;;;9.89;89.85
61506;BME280;47366;51.916;4.574;2023-02-16T15:20:18;102159.50;;;9.85;90.30
61506;BME280;47366;51.916;4.574;2023-02-16T15:28:03;102158.69;;;9.81;90.59
61506;BME280;47366;51.916;4.574;2023-02-16T15:30:41;102159.66;;;9.80;90.09
61506;BME280;47366;51.916;4.574;2023-02-16T15:36:09;102160.66;;;9.77;90.10
61506;BME280;47366;51.916;4.574;2023-02-16T15:39:00;102164.16;;;9.79;89.88
61506;BME280;47366;51.916;4.574;2023-02-16T15:41:27;102166.94;;;9.78;90.00
61506;BME280;47366;51.916;4.574;2023-02-16T15:43:55;102169.69;;;9.76;89.90
61506;BME280;47366;51.916;4.574;2023-02-16T15:46:28;102168.81;;;9.76;90.36
61506;BME280;47366;51.916;4.574;2023-02-16T15:48:54;102166.06;;;9.77;90.24
61506;BME280;47366;51.916;4.574;2023-02-16T15:53:52;102166.25;;;9.73;90.60
61506;BME280;47366;51.916;4.574;2023-02-16T15:56:26;102171.56;;;9.74;90.70
61506;BME280;47366;51.916;4.574;2023-02-16T15:58:53;102166.31;;;9.70;90.81